sensor_id;sensor_type;location;lat;lon;timestamp;P1;durP1;ratioP1;P2;durP2;ratioP2
16866;SDS011;8550;52.596;13.320;2024-02-15T00:03:28;4.82;;;1.92;;
16866;SDS011;8550;52.596;13.320;2024-02-15T00:08:32;13.23;;;2.30;;
16866;SDS011;8550;52.596;13.320;2024-02-15T00:13:35;4.43;;;2.03;;
16866;SDS011;8550;52.596;13.320;2024-02-15T00:18:37;4.20;;;1.93;;
16866;SDS011;8550;52.596;13.320;2024-02-15T00:23:42;6.65;;;2.13;;
16866;SDS011;8550;52.596;13.320;2024-02-15T00:28:44;4.30;;;1.73;;
16866;SDS011;8550;52.596;13.320;2024-02-15T00:33:47;4.83;;;1.93;;
16866;SDS011;8550;52.596;13.320;2024-02-15T00:38:50;7.95;;;2.60;;
16866;SDS011;8550;52.596;13.320;2024-02-15T00:43:52;5.60;;;2.30;;
16866;SDS011;8550;52.596;13.320;2024-02-15T00:48:54;4.30;;;1.57;;
16866;SDS011;8550;52.596;13.320;2024-02-15T00:53:58;5.93;;;2.17;;
16866;SDS011;8550;52.596;13.320;2024-02-15T00:59:00;5.47;;;2.50;;
16866;SDS011;8550;52.596;13.320;2024-02-15T01:04:02;9.63;;;2.80;;
16866;SDS011;8550;52.596;13.320;2024-02-15T01:09:05;6.13;;;2.67;;
16866;SDS011;8550;52.596;13.320;2024-02-15T01:14:08;4.95;;;2.45;;
16866;SDS011;8550;52.596;13.320;2024-02-15T01:19:10;9.45;;;2.55;;
16866;SDS011;8550;52.596;13.320;2024-02-15T01:24:13;7.50;;;3.17;;
16866;SDS011;8550;52.596;13.320;2024-02-15T01:29:15;5.47;;;2.40;;
16866;SDS011;8550;52.596;13.320;2024-02-15T01:34:17;8.30;;;3.63;;
16866;SDS011;8550;52.596;13.320;2024-02-15T01:39:20;6.87;;;2.37;;
16866;SDS011;8550;52.596;13.320;2024-02-15T01:44:22;7.13;;;3.42;;
16866;SDS011;8550;52.596;13.320;2024-02-15T01:49:25;5.07;;;2.47;;
16866;SDS011;8550;52.596;13.320;2024-02-15T01:54:30;5.93;;;2.80;;
16866;SDS011;8550;52.596;13.320;2024-02-15T01:59:34;5.07;;;2.20;;
16866;SDS011;8550;52.596;13.320;2024-02-15T02:04:37;5.30;;;2.40;;
16866;SDS011;8550;52.596;13.320;2024-02-15T02:09:40;6.55;;;2.92;;
16866;SDS011;8550;52.596;13.320;2024-02-15T02:14:42;5.97;;;2.33;;
16866;SDS011;8550;52.596;13.320;2024-02-15T02:19:44;6.22;;;3.03;;
16866;SDS011;8550;52.596;13.320;2024-02-15T02:25:01;7.20;;;3.13;;
16866;SDS011;8550;52.596;13.320;2024-02-15T02:30:05;7.07;;;3.40;;
16866;SDS011;8550;52.596;13.320;2024-02-15T02:35:16;9.10;;;3.45;;
16866;SDS011;8550;52.596;13.320;2024-02-15T02:40:22;9.75;;;3.13;;
16866;SDS011;8550;52.596;13.320;2024-02-15T02:45:24;8.50;;;3.70;;
16866;SDS011;8550;52.596;13.320;2024-02-15T02:50:26;7.87;;;3.97;;
16866;SDS011;8550;52.596;13.320;2024-02-15T02:55:29;7.82;;;4.00;;
16866;SDS011;8550;52.596;13.320;2024-02-15T03:00:31;7.45;;;4.03;;
16866;SDS011;8550;52.596;13.320;2024-02-15T03:05:33;8.33;;;3.20;;
16866;SDS011;8550;52.596;13.320;2024-02-15T03:10:36;7.55;;;3.45;;
16866;SDS011;8550;52.596;13.320;2024-02-15T03:15:38;9.30;;;4.03;;
16866;SDS011;8550;52.596;13.320;2024-02-15T03:20:41;7.60;;;3.30;;
16866;SDS011;8550;52.596;13.320;2024-02-15T03:25:45;8.32;;;4.20;;
16866;SDS011;8550;52.596;13.320;2024-02-15T03:30:49;7.75;;;3.75;;
16866;SDS011;8550;52.596;13.320;2024-02-15T03:35:51;5.20;;;3.07;;
16866;SDS011;8550;52.596;13.320;2024-02-15T03:40:54;7.50;;;3.88;;
16866;SDS011;8550;52.596;13.320;2024-02-15T03:45:56;7.22;;;3.42;;
16866;SDS011;8550;52.596;13.320;2024-02-15T03:50:58;14.43;;;3.63;;
16866;SDS011;8550;52.596;13.320;2024-02-15T03:56:03;6.95;;;3.50;;
16866;SDS011;8550;52.596;13.320;2024-02-15T04:01:05;7.35;;;3.50;;
16866;SDS011;8550;52.596;13.320;2024-02-15T04:06:09;11.93;;;4.57;;
16866;SDS011;8550;52.596;13.320;2024-02-15T04:11:13;10.07;;;3.47;;
16866;SDS011;8550;52.596;13.320;2024-02-15T04:16:16;10.00;;;3.60;;
16866;SDS011;8550;52.596;13.320;2024-02-15T04:21:18;7.73;;;3.73;;
16866;SDS011;8550;52.596;13.320;2024-02-15T04:26:22;5.87;;;2.80;;
16866;SDS011;8550;52.596;13.320;2024-02-15T04:31:26;7.45;;;3.17;;
16866;SDS011;8550;52.596;13.320;2024-02-15T04:36:28;8.68;;;3.83;;
16866;SDS011;8550;52.596;13.320;2024-02-15T04:41:35;7.33;;;3.33;;
16866;SDS011;8550;52.596;13.320;2024-02-15T04:46:39;7.65;;;3.88;;
16866;SDS011;8550;52.596;13.320;2024-02-15T04:51:41;11.52;;;4.00;;
16866;SDS011;8550;52.596;13.320;2024-02-15T04:56:45;9.63;;;3.90;;
16866;SDS011;8550;52.596;13.320;2024-02-15T05:01:47;9.15;;;3.83;;
16866;SDS011;8550;52.596;13.320;2024-02-15T05:06:49;10.50;;;3.60;;
16866;SDS011;8550;52.596;13.320;2024-02-15T05:11:54;6.50;;;3.40;;
16866;SDS011;8550;52.596;13.320;2024-02-15T05:16:56;8.27;;;3.53;;
16866;SDS011;8550;52.596;13.320;2024-02-15T05:21:58;7.95;;;3.50;;
16866;SDS011;8550;52.596;13.320;2024-02-15T05:27:02;7.63;;;4.03;;
16866;SDS011;8550;52.596;13.320;2024-02-15T05:32:05;6.90;;;3.43;;
16866;SDS011;8550;52.596;13.320;2024-02-15T05:37:07;6.60;;;3.05;;
16866;SDS011;8550;52.596;13.320;2024-02-15T05:42:12;6.72;;;2.50;;
16866;SDS011;8550;52.596;13.320;2024-02-15T05:47:14;8.53;;;4.07;;
16866;SDS011;8550;52.596;13.320;2024-02-15T05:52:16;8.20;;;3.83;;
16866;SDS011;8550;52.596;13.320;2024-02-15T05:57:20;8.73;;;3.28;;
16866;SDS011;8550;52.596;13.320;2024-02-15T06:02:23;5.77;;;3.23;;
16866;SDS011;8550;52.596;13.320;2024-02-15T06:07:25;6.70;;;2.70;;
16866;SDS011;8550;52.596;13.320;2024-02-15T06:12:30;7.40;;;3.40;;
16866;SDS011;8550;52.596;13.320;2024-02-15T06:17:32;7.45;;;3.25;;
16866;SDS011;8550;52.596;13.320;2024-02-15T06:22:34;6.73;;;2.50;;
16866;SDS011;8550;52.596;13.320;2024-02-15T06:27:37;7.75;;;3.35;;
16866;SDS011;8550;52.596;13.320;2024-02-15T06:32:40;5.35;;;2.17;;
16866;SDS011;8550;52.596;13.320;2024-02-15T06:38:00;8.50;;;2.73;;
16866;SDS011;8550;52.596;13.320;2024-02-15T06:43:21;6.85;;;2.80;;
16866;SDS011;8550;52.596;13.320;2024-02-15T06:48:24;9.82;;;3.45;;
16866;SDS011;8550;52.596;13.320;2024-02-15T06:53:26;8.40;;;3.53;;
16866;SDS011;8550;52.596;13.320;2024-02-15T06:58:29;7.53;;;3.20;;
16866;SDS011;8550;52.596;13.320;2024-02-15T07:03:31;8.05;;;4.00;;
16866;SDS011;8550;52.596;13.320;2024-02-15T07:08:33;10.13;;;2.97;;
16866;SDS011;8550;52.596;13.320;2024-02-15T07:13:37;7.50;;;3.43;;
16866;SDS011;8550;52.596;13.320;2024-02-15T07:18:38;6.38;;;2.83;;
16866;SDS011;8550;52.596;13.320;2024-02-15T07:23:40;11.90;;;4.03;;
16866;SDS011;8550;52.596;13.320;2024-02-15T07:28:44;7.03;;;2.93;;
16866;SDS011;8550;52.596;13.320;2024-02-15T07:33:48;7.68;;;3.38;;
16866;SDS011;8550;52.596;13.320;2024-02-15T07:38:53;7.53;;;2.72;;
16866;SDS011;8550;52.596;13.320;2024-02-15T07:43:59;7.30;;;3.27;;
16866;SDS011;8550;52.596;13.320;2024-02-15T07:49:01;7.43;;;3.30;;
16866;SDS011;8550;52.596;13.320;2024-02-15T07:54:03;7.10;;;3.20;;
16866;SDS011;8550;52.596;13.320;2024-02-15T07:59:07;8.50;;;3.33;;
16866;SDS011;8550;52.596;13.320;2024-02-15T08:04:09;8.70;;;2.77;;
16866;SDS011;8550;52.596;13.320;2024-02-15T08:09:11;9.18;;;3.38;;
16866;SDS011;8550;52.596;13.320;2024-02-15T08:14:15;5.57;;;2.15;;
16866;SDS011;8550;52.596;13.320;2024-02-15T08:19:17;6.60;;;3.03;;
16866;SDS011;8550;52.596;13.320;2024-02-15T08:24:19;5.20;;;2.28;;
16866;SDS011;8550;52.596;13.320;2024-02-15T08:29:22;6.80;;;2.03;;
16866;SDS011;8550;52.596;13.320;2024-02-15T08:34:24;6.53;;;3.00;;
16866;SDS011;8550;52.596;13.320;2024-02-15T08:39:26;7.35;;;2.78;;
16866;SDS011;8550;52.596;13.320;2024-02-15T08:44:29;6.95;;;2.70;;
16866;SDS011;8550;52.596;13.320;2024-02-15T08:49:31;6.30;;;2.90;;
16866;SDS011;8550;52.596;13.320;2024-02-15T08:54:33;6.90;;;3.07;;
16866;SDS011;8550;52.596;13.320;2024-02-15T08:59:36;7.65;;;2.85;;
16866;SDS011;8550;52.596;13.320;2024-02-15T09:04:38;6.68;;;3.08;;
16866;SDS011;8550;52.596;13.320;2024-02-15T09:09:41;5.83;;;2.33;;
16866;SDS011;8550;52.596;13.320;2024-02-15T09:14:44;6.25;;;2.88;;
16866;SDS011;8550;52.596;13.320;2024-02-15T09:19:47;7.00;;;2.75;;
16866;SDS011;8550;52.596;13.320;2024-02-15T09:24:49;5.83;;;2.30;;
16866;SDS011;8550;52.596;13.320;2024-02-15T09:29:52;6.25;;;2.42;;
16866;SDS011;8550;52.596;13.320;2024-02-15T09:34:55;5.55;;;1.70;;
16866;SDS011;8550;52.596;13.320;2024-02-15T09:39:57;4.57;;;1.73;;
16866;SDS011;8550;52.596;13.320;2024-02-15T09:45:06;5.73;;;2.10;;
16866;SDS011;8550;52.596;13.320;2024-02-15T09:50:11;6.47;;;2.10;;
16866;SDS011;8550;52.596;13.320;2024-02-15T09:55:14;8.00;;;2.38;;
16866;SDS011;8550;52.596;13.320;2024-02-15T10:00:19;6.07;;;2.23;;
16866;SDS011;8550;52.596;13.320;2024-02-15T10:05:21;4.25;;;1.85;;
16866;SDS011;8550;52.596;13.320;2024-02-15T10:10:23;5.43;;;2.00;;
16866;SDS011;8550;52.596;13.320;2024-02-15T10:15:28;5.40;;;2.07;;
16866;SDS011;8550;52.596;13.320;2024-02-15T10:20:34;7.07;;;2.03;;
16866;SDS011;8550;52.596;13.320;2024-02-15T10:25:38;4.97;;;2.05;;
16866;SDS011;8550;52.596;13.320;2024-02-15T10:30:43;5.37;;;2.17;;
16866;SDS011;8550;52.596;13.320;2024-02-15T10:35:45;4.68;;;1.60;;
16866;SDS011;8550;52.596;13.320;2024-02-15T10:40:47;4.20;;;1.30;;
16866;SDS011;8550;52.596;13.320;2024-02-15T10:45:51;5.30;;;1.80;;
16866;SDS011;8550;52.596;13.320;2024-02-15T10:50:53;3.97;;;1.80;;
16866;SDS011;8550;52.596;13.320;2024-02-15T10:56:04;4.28;;;1.75;;
16866;SDS011;8550;52.596;13.320;2024-02-15T11:01:14;4.80;;;1.48;;
16866;SDS011;8550;52.596;13.320;2024-02-15T11:06:19;3.37;;;1.10;;
16866;SDS011;8550;52.596;13.320;2024-02-15T11:11:23;3.10;;;1.25;;
16866;SDS011;8550;52.596;13.320;2024-02-15T11:27:10;3.45;;;1.17;;
16866;SDS011;8550;52.596;13.320;2024-02-15T11:37:52;3.40;;;1.43;;
16866;SDS011;8550;52.596;13.320;2024-02-15T11:43:04;3.20;;;1.27;;
16866;SDS011;8550;52.596;13.320;2024-02-15T11:48:08;5.20;;;1.27;;
16866;SDS011;8550;52.596;13.320;2024-02-15T11:53:11;4.45;;;1.27;;
16866;SDS011;8550;52.596;13.320;2024-02-15T11:58:13;3.33;;;1.60;;
16866;SDS011;8550;52.596;13.320;2024-02-15T12:03:23;5.20;;;1.88;;
16866;SDS011;8550;52.596;13.320;2024-02-15T12:08:43;3.42;;;1.13;;
16866;SDS011;8550;52.596;13.320;2024-02-15T12:14:04;6.80;;;1.70;;
16866;SDS011;8550;52.596;13.320;2024-02-15T12:19:24;5.78;;;1.65;;
16866;SDS011;8550;52.596;13.320;2024-02-15T12:24:26;4.45;;;1.30;;
16866;SDS011;8550;52.596;13.320;2024-02-15T12:29:28;7.07;;;2.37;;
16866;SDS011;8550;52.596;13.320;2024-02-15T12:34:32;5.27;;;2.23;;
16866;SDS011;8550;52.596;13.320;2024-02-15T12:39:34;3.50;;;1.08;;
16866;SDS011;8550;52.596;13.320;2024-02-15T12:44:37;4.00;;;1.48;;
16866;SDS011;8550;52.596;13.320;2024-02-15T12:49:47;2.47;;;1.00;;
16866;SDS011;8550;52.596;13.320;2024-02-15T12:54:50;3.08;;;1.10;;
16866;SDS011;8550;52.596;13.320;2024-02-15T13:00:10;2.72;;;0.73;;
16866;SDS011;8550;52.596;13.320;2024-02-15T13:05:16;5.27;;;1.00;;
16866;SDS011;8550;52.596;13.320;2024-02-15T13:10:19;6.55;;;1.05;;
16866;SDS011;8550;52.596;13.320;2024-02-15T13:15:22;3.50;;;1.13;;
16866;SDS011;8550;52.596;13.320;2024-02-15T13:20:34;5.57;;;1.80;;
16866;SDS011;8550;52.596;13.320;2024-02-15T13:25:37;13.03;;;4.97;;
16866;SDS011;8550;52.596;13.320;2024-02-15T13:30:40;3.60;;;1.10;;
16866;SDS011;8550;52.596;13.320;2024-02-15T13:35:45;4.90;;;1.50;;
16866;SDS011;8550;52.596;13.320;2024-02-15T13:40:47;5.53;;;1.10;;
16866;SDS011;8550;52.596;13.320;2024-02-15T13:45:51;4.10;;;1.23;;
16866;SDS011;8550;52.596;13.320;2024-02-15T13:50:55;3.95;;;1.20;;
16866;SDS011;8550;52.596;13.320;2024-02-15T13:55:58;2.90;;;1.00;;
16866;SDS011;8550;52.596;13.320;2024-02-15T14:01:00;3.08;;;1.10;;
16866;SDS011;8550;52.596;13.320;2024-02-15T14:06:05;5.25;;;1.20;;
16866;SDS011;8550;52.596;13.320;2024-02-15T14:11:08;2.40;;;0.83;;
16866;SDS011;8550;52.596;13.320;2024-02-15T14:16:10;3.40;;;1.10;;
16866;SDS011;8550;52.596;13.320;2024-02-15T14:21:14;6.82;;;1.15;;
16866;SDS011;8550;52.596;13.320;2024-02-15T14:26:17;3.17;;;1.20;;
16866;SDS011;8550;52.596;13.320;2024-02-15T14:31:22;3.43;;;1.00;;
16866;SDS011;8550;52.596;13.320;2024-02-15T14:36:42;3.45;;;1.00;;
16866;SDS011;8550;52.596;13.320;2024-02-15T14:41:45;3.63;;;1.45;;
16866;SDS011;8550;52.596;13.320;2024-02-15T14:46:47;3.70;;;0.97;;
16866;SDS011;8550;52.596;13.320;2024-02-15T14:51:50;2.78;;;1.00;;
16866;SDS011;8550;52.596;13.320;2024-02-15T14:56:52;5.53;;;1.15;;
16866;SDS011;8550;52.596;13.320;2024-02-15T15:01:54;4.27;;;1.27;;
16866;SDS011;8550;52.596;13.320;2024-02-15T15:06:59;6.13;;;1.63;;
16866;SDS011;8550;52.596;13.320;2024-02-15T15:12:18;3.35;;;1.25;;
16866;SDS011;8550;52.596;13.320;2024-02-15T15:17:40;7.93;;;1.42;;
16866;SDS011;8550;52.596;13.320;2024-02-15T15:22:44;5.23;;;1.90;;
16866;SDS011;8550;52.596;13.320;2024-02-15T15:27:46;7.28;;;1.98;;
16866;SDS011;8550;52.596;13.320;2024-02-15T15:32:48;5.60;;;1.60;;
16866;SDS011;8550;52.596;13.320;2024-02-15T15:37:51;3.17;;;1.20;;
16866;SDS011;8550;52.596;13.320;2024-02-15T15:42:53;4.65;;;1.40;;
16866;SDS011;8550;52.596;13.320;2024-02-15T15:47:55;4.45;;;1.60;;
16866;SDS011;8550;52.596;13.320;2024-02-15T15:52:59;4.50;;;1.93;;
16866;SDS011;8550;52.596;13.320;2024-02-15T15:58:01;5.23;;;1.97;;
16866;SDS011;8550;52.596;13.320;2024-02-15T16:03:03;5.75;;;1.55;;
16866;SDS011;8550;52.596;13.320;2024-02-15T16:08:07;3.88;;;1.80;;
16866;SDS011;8550;52.596;13.320;2024-02-15T16:13:09;6.90;;;1.43;;
16866;SDS011;8550;52.596;13.320;2024-02-15T16:18:10;5.82;;;1.70;;
16866;SDS011;8550;52.596;13.320;2024-02-15T16:23:15;5.05;;;1.20;;
16866;SDS011;8550;52.596;13.320;2024-02-15T16:28:17;6.77;;;1.90;;
16866;SDS011;8550;52.596;13.320;2024-02-15T16:33:19;5.68;;;1.73;;
16866;SDS011;8550;52.596;13.320;2024-02-15T16:38:23;3.92;;;1.70;;
16866;SDS011;8550;52.596;13.320;2024-02-15T16:43:25;5.17;;;2.00;;
16866;SDS011;8550;52.596;13.320;2024-02-15T16:48:27;4.90;;;1.83;;
16866;SDS011;8550;52.596;13.320;2024-02-15T16:53:31;4.30;;;1.80;;
16866;SDS011;8550;52.596;13.320;2024-02-15T16:58:33;6.00;;;2.15;;
16866;SDS011;8550;52.596;13.320;2024-02-15T17:03:35;5.00;;;2.23;;
16866;SDS011;8550;52.596;13.320;2024-02-15T17:08:38;4.10;;;1.67;;
16866;SDS011;8550;52.596;13.320;2024-02-15T17:13:41;9.05;;;2.53;;
16866;SDS011;8550;52.596;13.320;2024-02-15T17:18:44;4.90;;;1.93;;
16866;SDS011;8550;52.596;13.320;2024-02-15T17:23:50;4.85;;;1.83;;
16866;SDS011;8550;52.596;13.320;2024-02-15T17:28:52;4.57;;;1.63;;
16866;SDS011;8550;52.596;13.320;2024-02-15T17:33:56;7.63;;;2.27;;
16866;SDS011;8550;52.596;13.320;2024-02-15T17:38:59;10.53;;;3.23;;
16866;SDS011;8550;52.596;13.320;2024-02-15T17:44:01;4.30;;;1.73;;
16866;SDS011;8550;52.596;13.320;2024-02-15T17:49:03;5.68;;;1.92;;
16866;SDS011;8550;52.596;13.320;2024-02-15T17:54:06;5.30;;;1.23;;
16866;SDS011;8550;52.596;13.320;2024-02-15T17:59:08;4.65;;;1.83;;
16866;SDS011;8550;52.596;13.320;2024-02-15T18:04:11;6.00;;;2.50;;
16866;SDS011;8550;52.596;13.320;2024-02-15T18:09:14;5.00;;;2.00;;
16866;SDS011;8550;52.596;13.320;2024-02-15T18:14:16;5.50;;;2.00;;
16866;SDS011;8550;52.596;13.320;2024-02-15T18:19:18;4.78;;;1.65;;
16866;SDS011;8550;52.596;13.320;2024-02-15T18:24:23;6.60;;;1.90;;
16866;SDS011;8550;52.596;13.320;2024-02-15T18:29:25;7.20;;;3.13;;
16866;SDS011;8550;52.596;13.320;2024-02-15T18:34:27;6.05;;;1.90;;
16866;SDS011;8550;52.596;13.320;2024-02-15T18:39:33;7.77;;;1.73;;
16866;SDS011;8550;52.596;13.320;2024-02-15T18:44:35;4.97;;;1.87;;
16866;SDS011;8550;52.596;13.320;2024-02-15T18:49:37;3.58;;;1.48;;
16866;SDS011;8550;52.596;13.320;2024-02-15T18:54:40;3.55;;;1.48;;
16866;SDS011;8550;52.596;13.320;2024-02-15T18:59:42;3.00;;;1.30;;
16866;SDS011;8550;52.596;13.320;2024-02-15T19:04:45;3.35;;;1.23;;
16866;SDS011;8550;52.596;13.320;2024-02-15T19:09:48;3.67;;;1.50;;
16866;SDS011;8550;52.596;13.320;2024-02-15T19:14:50;4.27;;;1.70;;
16866;SDS011;8550;52.596;13.320;2024-02-15T19:19:52;4.10;;;1.42;;
16866;SDS011;8550;52.596;13.320;2024-02-15T19:24:56;4.70;;;1.67;;
16866;SDS011;8550;52.596;13.320;2024-02-15T19:29:58;4.27;;;1.60;;
16866;SDS011;8550;52.596;13.320;2024-02-15T19:35:00;5.47;;;1.80;;
16866;SDS011;8550;52.596;13.320;2024-02-15T19:40:03;8.23;;;1.80;;
16866;SDS011;8550;52.596;13.320;2024-02-15T19:45:11;4.22;;;1.77;;
16866;SDS011;8550;52.596;13.320;2024-02-15T19:50:17;4.50;;;1.30;;
16866;SDS011;8550;52.596;13.320;2024-02-15T19:55:22;4.20;;;1.73;;
16866;SDS011;8550;52.596;13.320;2024-02-15T20:00:24;6.03;;;1.50;;
16866;SDS011;8550;52.596;13.320;2024-02-15T20:05:26;6.63;;;1.90;;
16866;SDS011;8550;52.596;13.320;2024-02-15T20:10:30;6.90;;;1.85;;
16866;SDS011;8550;52.596;13.320;2024-02-15T20:15:32;3.53;;;1.80;;
16866;SDS011;8550;52.596;13.320;2024-02-15T20:20:33;3.37;;;1.80;;
16866;SDS011;8550;52.596;13.320;2024-02-15T20:25:37;3.42;;;1.45;;
16866;SDS011;8550;52.596;13.320;2024-02-15T20:30:39;6.18;;;1.98;;
16866;SDS011;8550;52.596;13.320;2024-02-15T20:35:41;4.47;;;1.90;;
16866;SDS011;8550;52.596;13.320;2024-02-15T20:40:44;6.53;;;1.87;;
16866;SDS011;8550;52.596;13.320;2024-02-15T20:45:46;6.03;;;1.73;;
16866;SDS011;8550;52.596;13.320;2024-02-15T20:50:48;4.95;;;1.77;;
16866;SDS011;8550;52.596;13.320;2024-02-15T20:55:52;5.03;;;1.97;;
16866;SDS011;8550;52.596;13.320;2024-02-15T21:00:54;6.40;;;2.10;;
16866;SDS011;8550;52.596;13.320;2024-02-15T21:05:56;3.97;;;1.52;;
16866;SDS011;8550;52.596;13.320;2024-02-15T21:10:59;5.37;;;1.70;;
16866;SDS011;8550;52.596;13.320;2024-02-15T21:16:01;7.32;;;2.80;;
16866;SDS011;8550;52.596;13.320;2024-02-15T21:21:06;4.47;;;1.63;;
16866;SDS011;8550;52.596;13.320;2024-02-15T21:26:11;6.07;;;2.27;;
16866;SDS011;8550;52.596;13.320;2024-02-15T21:31:13;4.55;;;1.55;;
16866;SDS011;8550;52.596;13.320;2024-02-15T21:36:15;4.00;;;1.70;;
16866;SDS011;8550;52.596;13.320;2024-02-15T21:41:19;4.83;;;1.53;;
16866;SDS011;8550;52.596;13.320;2024-02-15T21:46:21;4.10;;;1.40;;
16866;SDS011;8550;52.596;13.320;2024-02-15T21:51:23;5.13;;;1.75;;
16866;SDS011;8550;52.596;13.320;2024-02-15T21:56:27;6.70;;;2.28;;
16866;SDS011;8550;52.596;13.320;2024-02-15T22:01:28;4.40;;;1.60;;
16866;SDS011;8550;52.596;13.320;2024-02-15T22:06:31;5.22;;;1.90;;
16866;SDS011;8550;52.596;13.320;2024-02-15T22:11:34;9.75;;;1.90;;
16866;SDS011;8550;52.596;13.320;2024-02-15T22:16:36;3.93;;;1.50;;
16866;SDS011;8550;52.596;13.320;2024-02-15T22:21:38;3.80;;;1.30;;
16866;SDS011;8550;52.596;13.320;2024-02-15T22:26:42;3.92;;;1.75;;
16866;SDS011;8550;52.596;13.320;2024-02-15T22:31:44;6.90;;;2.07;;
16866;SDS011;8550;52.596;13.320;2024-02-15T22:36:46;4.90;;;2.23;;
16866;SDS011;8550;52.596;13.320;2024-02-15T22:41:49;3.97;;;1.80;;
16866;SDS011;8550;52.596;13.320;2024-02-15T22:46:51;4.18;;;1.95;;
16866;SDS011;8550;52.596;13.320;2024-02-15T22:51:53;5.33;;;1.87;;
16866;SDS011;8550;52.596;13.320;2024-02-15T22:56:57;3.83;;;1.63;;
16866;SDS011;8550;52.596;13.320;2024-02-15T23:01:59;5.38;;;1.70;;
16866;SDS011;8550;52.596;13.320;2024-02-15T23:07:00;4.43;;;1.70;;
16866;SDS011;8550;52.596;13.320;2024-02-15T23:12:05;5.50;;;1.90;;
16866;SDS011;8550;52.596;13.320;2024-02-15T23:17:08;6.70;;;2.20;;
16866;SDS011;8550;52.596;13.320;2024-02-15T23:22:10;4.23;;;1.67;;
16866;SDS011;8550;52.596;13.320;2024-02-15T23:27:15;4.82;;;1.73;;
16866;SDS011;8550;52.596;13.320;2024-02-15T23:32:16;4.50;;;2.00;;
16866;SDS011;8550;52.596;13.320;2024-02-15T23:37:18;5.63;;;2.43;;
16866;SDS011;8550;52.596;13.320;2024-02-15T23:42:39;5.40;;;2.40;;
16866;SDS011;8550;52.596;13.320;2024-02-15T23:47:41;5.75;;;2.00;;
16866;SDS011;8550;52.596;13.320;2024-02-15T23:52:43;5.63;;;2.58;;
16866;SDS011;8550;52.596;13.320;2024-02-15T23:57:47;4.57;;;1.70;;
